sensor_id;sensor_type;location;lat;lon;timestamp;pressure;altitude;pressure_sealevel;temperature;humidity
35489;BME280;21602;55.670;37.578;2024-03-02T00:01:24;100447.88;;;4.20;83.47
35489;BME280;21602;55.670;37.578;2024-03-02T00:03:49;100450.03;;;4.25;83.63
35489;BME280;21602;55.670;37.578;2024-03-02T00:06:15;100440.78;;;4.29;83.32
35489;BME280;21602;55.670;37.578;2024-03-02T00:08:44;100446.56;;;4.32;83.25
35489;BME280;21602;55.670;37.578;2024-03-02T00:11:10;100444.75;;;4.33;82.78
35489;BME280;21602;55.670;37.578;2024-03-02T00:13:39;100437.13;;;4.30;82.81
35489;BME280;21602;55.670;37.578;2024-03-02T00:16:05;100442.59;;;4.28;83.05
35489;BME280;21602;55.670;37.578;2024-03-02T00:18:31;100435.13;;;4.32;82.87
35489;BME280;21602;55.670;37.578;2024-03-02T00:20:58;100438.78;;;4.31;82.81
35489;BME280;21602;55.670;37.578;2024-03-02T00:23:24;100431.84;;;4.30;82.74
35489;BME280;21602;55.670;37.578;2024-03-02T00:25:52;100426.88;;;4.27;82.51
35489;BME280;21602;55.670;37.578;2024-03-02T00:33:15;100429.88;;;4.24;82.57
35489;BME280;21602;55.670;37.578;2024-03-02T00:35:43;100437.00;;;4.23;82.78
35489;BME280;21602;55.670;37.578;2024-03-02T00:38:09;100428.72;;;4.18;82.49
35489;BME280;21602;55.670;37.578;2024-03-02T00:40:34;100429.88;;;4.16;82.73
35489;BME280;21602;55.670;37.578;2024-03-02T00:43:01;100438.31;;;4.19;82.96
35489;BME280;21602;55.670;37.578;2024-03-02T00:45:27;100429.72;;;4.25;82.82
35489;BME280;21602;55.670;37.578;2024-03-02T00:47:53;100431.84;;;4.30;82.47
35489;BME280;21602;55.670;37.578;2024-03-02T00:50:19;100432.16;;;4.27;82.42
35489;BME280;21602;55.670;37.578;2024-03-02T00:52:45;100432.84;;;4.21;82.38
35489;BME280;21602;55.670;37.578;2024-03-02T00:55:10;100437.63;;;4.17;82.56
35489;BME280;21602;55.670;37.578;2024-03-02T00:57:37;100437.16;;;4.14;82.76
35489;BME280;21602;55.670;37.578;2024-03-02T01:00:03;100438.81;;;4.15;82.99
35489;BME280;21602;55.670;37.578;2024-03-02T01:02:33;100441.78;;;4.20;83.03
35489;BME280;21602;55.670;37.578;2024-03-02T01:04:59;100441.94;;;4.26;83.10
35489;BME280;21602;55.670;37.578;2024-03-02T01:07:25;100449.34;;;4.31;82.81
35489;BME280;21602;55.670;37.578;2024-03-02T01:09:50;100439.59;;;4.31;82.69
35489;BME280;21602;55.670;37.578;2024-03-02T01:12:16;100449.03;;;4.34;82.82
35489;BME280;21602;55.670;37.578;2024-03-02T01:14:41;100450.19;;;4.31;82.70
35489;BME280;21602;55.670;37.578;2024-03-02T01:17:07;100454.00;;;4.29;82.85
35489;BME280;21602;55.670;37.578;2024-03-02T01:19:33;100456.63;;;4.29;82.83
35489;BME280;21602;55.670;37.578;2024-03-02T01:21:58;100457.16;;;4.32;82.75
35489;BME280;21602;55.670;37.578;2024-03-02T01:24:24;100453.66;;;4.32;82.65
35489;BME280;21602;55.670;37.578;2024-03-02T01:26:49;100452.19;;;4.29;82.76
35489;BME280;21602;55.670;37.578;2024-03-02T01:29:15;100454.16;;;4.27;82.57
35489;BME280;21602;55.670;37.578;2024-03-02T01:31:40;100452.84;;;4.23;82.90
35489;BME280;21602;55.670;37.578;2024-03-02T01:34:07;100449.88;;;4.18;82.87
35489;BME280;21602;55.670;37.578;2024-03-02T01:36:33;100450.38;;;4.14;83.19
35489;BME280;21602;55.670;37.578;2024-03-02T01:38:59;100451.00;;;4.16;83.25
35489;BME280;21602;55.670;37.578;2024-03-02T01:41:25;100450.03;;;4.08;83.43
35489;BME280;21602;55.670;37.578;2024-03-02T01:43:50;100448.72;;;4.04;83.55
35489;BME280;21602;55.670;37.578;2024-03-02T01:46:16;100450.34;;;4.05;83.71
35489;BME280;21602;55.670;37.578;2024-03-02T01:48:42;100448.88;;;4.11;83.84
35489;BME280;21602;55.670;37.578;2024-03-02T01:51:07;100448.56;;;4.14;83.47
35489;BME280;21602;55.670;37.578;2024-03-02T01:53:33;100441.44;;;4.15;83.59
35489;BME280;21602;55.670;37.578;2024-03-02T01:55:59;100445.41;;;4.19;83.52
35489;BME280;21602;55.670;37.578;2024-03-02T01:58:24;100444.25;;;4.21;83.64
35489;BME280;21602;55.670;37.578;2024-03-02T02:00:50;100449.72;;;4.28;83.46
35489;BME280;21602;55.670;37.578;2024-03-02T02:03:15;100449.72;;;4.28;83.07
35489;BME280;21602;55.670;37.578;2024-03-02T02:05:44;100447.38;;;4.25;83.03
35489;BME280;21602;55.670;37.578;2024-03-02T02:08:11;100457.31;;;4.23;83.11
35489;BME280;21602;55.670;37.578;2024-03-02T02:10:36;100457.31;;;4.23;83.31
35489;BME280;21602;55.670;37.578;2024-03-02T02:13:02;100457.31;;;4.23;83.14
35489;BME280;21602;55.670;37.578;2024-03-02T02:15:31;100452.50;;;4.26;83.42
35489;BME280;21602;55.670;37.578;2024-03-02T02:17:57;100458.47;;;4.28;83.25
35489;BME280;21602;55.670;37.578;2024-03-02T02:20:43;100455.13;;;4.26;83.14
35489;BME280;21602;55.670;37.578;2024-03-02T02:23:09;100462.25;;;4.26;83.29
35489;BME280;21602;55.670;37.578;2024-03-02T02:25:35;100456.47;;;4.22;82.87
35489;BME280;21602;55.670;37.578;2024-03-02T02:28:01;100458.97;;;4.24;82.84
35489;BME280;21602;55.670;37.578;2024-03-02T02:30:28;100458.59;;;4.27;82.96
35489;BME280;21602;55.670;37.578;2024-03-02T02:32:54;100457.28;;;4.31;82.43
35489;BME280;21602;55.670;37.578;2024-03-02T02:35:19;100459.59;;;4.26;82.33
35489;BME280;21602;55.670;37.578;2024-03-02T02:37:45;100454.00;;;4.21;82.39
35489;BME280;21602;55.670;37.578;2024-03-02T02:40:11;100465.56;;;4.20;82.48
35489;BME280;21602;55.670;37.578;2024-03-02T02:42:38;100461.91;;;4.21;82.64
35489;BME280;21602;55.670;37.578;2024-03-02T02:45:04;100461.91;;;4.21;82.27
35489;BME280;21602;55.670;37.578;2024-03-02T02:47:30;100466.22;;;4.14;82.48
35489;BME280;21602;55.670;37.578;2024-03-02T02:49:55;100467.69;;;4.08;82.65
35489;BME280;21602;55.670;37.578;2024-03-02T02:52:21;100462.41;;;4.08;82.58
35489;BME280;21602;55.670;37.578;2024-03-02T02:54:47;100466.22;;;4.05;82.66
35489;BME280;21602;55.670;37.578;2024-03-02T02:57:12;100463.56;;;4.05;82.56
35489;BME280;21602;55.670;37.578;2024-03-02T02:59:38;100465.03;;;4.08;82.51
35489;BME280;21602;55.670;37.578;2024-03-02T03:02:04;100457.28;;;4.06;82.35
35489;BME280;21602;55.670;37.578;2024-03-02T03:04:30;100462.56;;;4.06;82.37
35489;BME280;21602;55.670;37.578;2024-03-02T03:06:56;100471.31;;;4.07;82.24
35489;BME280;21602;55.670;37.578;2024-03-02T03:09:21;100460.59;;;4.08;82.43
35489;BME280;21602;55.670;37.578;2024-03-02T03:11:47;100474.97;;;4.06;82.24
35489;BME280;21602;55.670;37.578;2024-03-02T03:14:12;100474.31;;;4.04;82.40
35489;BME280;21602;55.670;37.578;2024-03-02T03:16:38;100477.09;;;4.02;82.23
35489;BME280;21602;55.670;37.578;2024-03-02T03:19:03;100479.25;;;3.99;82.35
35489;BME280;21602;55.670;37.578;2024-03-02T03:21:29;100484.19;;;4.02;82.65
35489;BME280;21602;55.670;37.578;2024-03-02T03:23:54;100477.78;;;4.04;82.58
35489;BME280;21602;55.670;37.578;2024-03-02T03:26:20;100472.50;;;4.04;82.35
35489;BME280;21602;55.670;37.578;2024-03-02T03:28:46;100473.47;;;4.03;82.39
35489;BME280;21602;55.670;37.578;2024-03-02T03:31:11;100471.66;;;4.04;82.74
35489;BME280;21602;55.670;37.578;2024-03-02T03:33:37;100469.34;;;4.09;82.75
35489;BME280;21602;55.670;37.578;2024-03-02T03:36:03;100461.91;;;4.13;82.76
35489;BME280;21602;55.670;37.578;2024-03-02T03:38:29;100465.53;;;4.11;82.79
35489;BME280;21602;55.670;37.578;2024-03-02T03:40:55;100464.22;;;4.07;82.77
35489;BME280;21602;55.670;37.578;2024-03-02T03:43:20;100463.56;;;4.05;82.87
35489;BME280;21602;55.670;37.578;2024-03-02T03:45:46;100456.13;;;4.01;83.37
35489;BME280;21602;55.670;37.578;2024-03-02T03:48:11;100464.22;;;3.91;83.60
35489;BME280;21602;55.670;37.578;2024-03-02T03:50:37;100463.06;;;3.85;83.90
35489;BME280;21602;55.670;37.578;2024-03-02T03:53:03;100464.69;;;3.87;83.86
35489;BME280;21602;55.670;37.578;2024-03-02T03:55:29;100462.84;;;3.79;83.73
35489;BME280;21602;55.670;37.578;2024-03-02T03:57:54;100459.22;;;3.72;83.96
35489;BME280;21602;55.670;37.578;2024-03-02T04:00:20;100459.53;;;3.69;84.04
35489;BME280;21602;55.670;37.578;2024-03-02T04:02:46;100460.06;;;3.72;84.29
35489;BME280;21602;55.670;37.578;2024-03-02T04:05:11;100455.94;;;3.78;84.14
35489;BME280;21602;55.670;37.578;2024-03-02T04:07:37;100457.75;;;3.77;84.21
35489;BME280;21602;55.670;37.578;2024-03-02T04:10:06;100459.88;;;3.74;84.35
35489;BME280;21602;55.670;37.578;2024-03-02T04:12:33;100451.44;;;3.70;84.58
35489;BME280;21602;55.670;37.578;2024-03-02T04:14:59;100452.59;;;3.68;84.57
35489;BME280;21602;55.670;37.578;2024-03-02T04:17:25;100455.41;;;3.66;84.54
35489;BME280;21602;55.670;37.578;2024-03-02T04:19:50;100466.81;;;3.67;84.93
35489;BME280;21602;55.670;37.578;2024-03-02T04:22:16;100469.75;;;3.64;84.79
35489;BME280;21602;55.670;37.578;2024-03-02T04:24:41;100470.94;;;3.69;84.96
35489;BME280;21602;55.670;37.578;2024-03-02T04:27:07;100471.13;;;3.76;84.52
35489;BME280;21602;55.670;37.578;2024-03-02T04:29:32;100463.03;;;3.77;84.36
35489;BME280;21602;55.670;37.578;2024-03-02T04:31:58;100464.69;;;3.78;84.37
35489;BME280;21602;55.670;37.578;2024-03-02T04:34:23;100461.69;;;3.73;84.71
35489;BME280;21602;55.670;37.578;2024-03-02T04:36:49;100466.78;;;3.58;84.88
35489;BME280;21602;55.670;37.578;2024-03-02T04:39:15;100467.78;;;3.57;85.13
35489;BME280;21602;55.670;37.578;2024-03-02T04:41:41;100463.16;;;3.59;85.09
35489;BME280;21602;55.670;37.578;2024-03-02T04:44:07;100459.88;;;3.66;85.15
35489;BME280;21602;55.670;37.578;2024-03-02T04:46:33;100470.09;;;3.69;85.14
35489;BME280;21602;55.670;37.578;2024-03-02T04:48:59;100461.53;;;3.75;84.84
35489;BME280;21602;55.670;37.578;2024-03-02T04:51:24;100462.53;;;3.74;84.82
35489;BME280;21602;55.670;37.578;2024-03-02T04:53:50;100466.81;;;3.67;84.84
35489;BME280;21602;55.670;37.578;2024-03-02T04:56:15;100471.25;;;3.66;85.23
35489;BME280;21602;55.670;37.578;2024-03-02T04:59:19;100466.16;;;3.73;85.03
35489;BME280;21602;55.670;37.578;2024-03-02T05:01:45;100468.31;;;3.77;84.83
35489;BME280;21602;55.670;37.578;2024-03-02T05:04:10;100466.19;;;3.81;84.79
35489;BME280;21602;55.670;37.578;2024-03-02T05:06:37;100470.47;;;3.82;84.56
35489;BME280;21602;55.670;37.578;2024-03-02T05:09:04;100464.16;;;3.75;84.34
35489;BME280;21602;55.670;37.578;2024-03-02T05:11:29;100469.44;;;3.75;84.69
35489;BME280;21602;55.670;37.578;2024-03-02T05:14:04;100466.47;;;3.62;84.25
35489;BME280;21602;55.670;37.578;2024-03-02T05:16:36;100461.47;;;3.50;84.42
35489;BME280;21602;55.670;37.578;2024-03-02T05:19:06;100462.63;;;3.48;84.54
35489;BME280;21602;55.670;37.578;2024-03-02T05:21:32;100468.72;;;3.48;84.72
35489;BME280;21602;55.670;37.578;2024-03-02T05:23:57;100466.78;;;3.58;84.95
35489;BME280;21602;55.670;37.578;2024-03-02T05:26:23;100466.94;;;3.65;84.40
35489;BME280;21602;55.670;37.578;2024-03-02T05:28:49;100468.47;;;3.68;84.21
35489;BME280;21602;55.670;37.578;2024-03-02T05:31:15;100477.72;;;3.72;84.34
35489;BME280;21602;55.670;37.578;2024-03-02T05:33:41;100475.41;;;3.77;84.15
35489;BME280;21602;55.670;37.578;2024-03-02T05:36:07;100467.81;;;3.82;83.93
35489;BME280;21602;55.670;37.578;2024-03-02T05:38:36;100474.94;;;3.81;83.76
35489;BME280;21602;55.670;37.578;2024-03-02T05:41:02;100466.81;;;3.75;83.90
35489;BME280;21602;55.670;37.578;2024-03-02T05:43:30;100479.69;;;3.78;83.90
35489;BME280;21602;55.670;37.578;2024-03-02T05:45:55;100476.75;;;3.81;83.82
35489;BME280;21602;55.670;37.578;2024-03-02T05:48:21;100473.44;;;3.87;83.84
35489;BME280;21602;55.670;37.578;2024-03-02T05:50:46;100473.13;;;3.90;83.39
35489;BME280;21602;55.670;37.578;2024-03-02T05:53:12;100481.72;;;3.92;83.26
35489;BME280;21602;55.670;37.578;2024-03-02T05:55:37;100478.75;;;3.95;83.33
35489;BME280;21602;55.670;37.578;2024-03-02T05:58:03;100473.97;;;3.99;83.25
35489;BME280;21602;55.670;37.578;2024-03-02T06:00:32;100482.88;;;3.98;83.10
35489;BME280;21602;55.670;37.578;2024-03-02T06:02:58;100479.75;;;4.02;82.99
35489;BME280;21602;55.670;37.578;2024-03-02T06:05:24;100482.38;;;4.02;82.85
35489;BME280;21602;55.670;37.578;2024-03-02T06:07:50;100480.41;;;4.04;83.05
35489;BME280;21602;55.670;37.578;2024-03-02T06:10:15;100483.41;;;4.09;82.62
35489;BME280;21602;55.670;37.578;2024-03-02T06:12:41;100485.19;;;4.17;82.76
35489;BME280;21602;55.670;37.578;2024-03-02T06:15:07;100479.75;;;4.27;82.33
35489;BME280;21602;55.670;37.578;2024-03-02T06:17:32;100484.22;;;4.34;82.11
35489;BME280;21602;55.670;37.578;2024-03-02T06:19:58;100478.63;;;4.29;81.83
35489;BME280;21602;55.670;37.578;2024-03-02T06:22:23;100485.06;;;4.19;81.97
35489;BME280;21602;55.670;37.578;2024-03-02T06:24:50;100489.31;;;4.11;81.85
35489;BME280;21602;55.670;37.578;2024-03-02T06:27:16;100487.84;;;4.09;83.15
35489;BME280;21602;55.670;37.578;2024-03-02T06:29:41;100491.31;;;4.09;82.50
35489;BME280;21602;55.670;37.578;2024-03-02T06:32:07;100480.06;;;4.07;82.55
35489;BME280;21602;55.670;37.578;2024-03-02T06:34:32;100483.03;;;4.13;82.66
35489;BME280;21602;55.670;37.578;2024-03-02T06:36:58;100474.47;;;4.19;82.47
35489;BME280;21602;55.670;37.578;2024-03-02T06:39:24;100479.25;;;4.31;82.27
35489;BME280;21602;55.670;37.578;2024-03-02T06:41:51;100479.09;;;4.41;82.04
35489;BME280;21602;55.670;37.578;2024-03-02T06:44:16;100482.75;;;4.48;81.54
35489;BME280;21602;55.670;37.578;2024-03-02T06:46:42;100478.78;;;4.52;81.32
35489;BME280;21602;55.670;37.578;2024-03-02T06:49:08;100479.09;;;4.66;81.25
35489;BME280;21602;55.670;37.578;2024-03-02T06:51:35;100477.78;;;4.61;80.86
35489;BME280;21602;55.670;37.578;2024-03-02T06:54:01;100480.41;;;4.61;80.89
35489;BME280;21602;55.670;37.578;2024-03-02T06:56:26;100489.69;;;4.57;80.85
35489;BME280;21602;55.670;37.578;2024-03-02T06:58:52;100487.34;;;4.54;80.97
35489;BME280;21602;55.670;37.578;2024-03-02T07:01:18;100488.19;;;4.55;81.20
35489;BME280;21602;55.670;37.578;2024-03-02T07:03:43;100482.56;;;4.58;80.97
35489;BME280;21602;55.670;37.578;2024-03-02T07:06:09;100487.84;;;4.66;81.09
35489;BME280;21602;55.670;37.578;2024-03-02T07:08:34;100489.31;;;4.77;81.25
35489;BME280;21602;55.670;37.578;2024-03-02T07:11:00;100489.31;;;4.85;79.80
35489;BME280;21602;55.670;37.578;2024-03-02T07:13:26;100488.00;;;4.89;79.82
35489;BME280;21602;55.670;37.578;2024-03-02T07:15:52;100486.63;;;4.93;79.30
35489;BME280;21602;55.670;37.578;2024-03-02T07:18:30;100488.78;;;4.98;78.64
35489;BME280;21602;55.670;37.578;2024-03-02T07:21:09;100495.75;;;4.74;78.25
35489;BME280;21602;55.670;37.578;2024-03-02T07:23:35;100493.16;;;4.58;79.09
35489;BME280;21602;55.670;37.578;2024-03-02T07:26:00;100485.56;;;4.47;79.24
35489;BME280;21602;55.670;37.578;2024-03-02T07:28:27;100491.66;;;4.39;79.05
35489;BME280;21602;55.670;37.578;2024-03-02T07:33:24;100486.34;;;4.55;79.09
35489;BME280;21602;55.670;37.578;2024-03-02T07:35:49;100491.97;;;4.77;79.28
35489;BME280;21602;55.670;37.578;2024-03-02T07:38:15;100481.00;;;4.96;78.37
35489;BME280;21602;55.670;37.578;2024-03-02T07:40:41;100475.00;;;5.19;78.36
35489;BME280;21602;55.670;37.578;2024-03-02T07:43:07;100479.69;;;5.39;77.52
35489;BME280;21602;55.670;37.578;2024-03-02T07:45:34;100469.13;;;5.31;76.22
35489;BME280;21602;55.670;37.578;2024-03-02T07:48:01;100475.13;;;5.25;77.37
35489;BME280;21602;55.670;37.578;2024-03-02T07:50:29;100473.31;;;5.26;76.91
35489;BME280;21602;55.670;37.578;2024-03-02T07:52:55;100475.28;;;5.32;76.23
35489;BME280;21602;55.670;37.578;2024-03-02T07:55:21;100475.94;;;5.34;75.73
35489;BME280;21602;55.670;37.578;2024-03-02T07:57:49;100470.03;;;5.16;75.75
35489;BME280;21602;55.670;37.578;2024-03-02T08:00:15;100471.22;;;5.05;75.69
35489;BME280;21602;55.670;37.578;2024-03-02T08:02:41;100473.38;;;5.01;76.57
35489;BME280;21602;55.670;37.578;2024-03-02T08:05:07;100472.06;;;4.97;76.55
35489;BME280;21602;55.670;37.578;2024-03-02T08:07:33;100471.75;;;4.84;76.13
35489;BME280;21602;55.670;37.578;2024-03-02T08:09:59;100470.44;;;4.96;76.32
35489;BME280;21602;55.670;37.578;2024-03-02T08:12:25;100470.75;;;4.93;75.96
35489;BME280;21602;55.670;37.578;2024-03-02T08:14:50;100464.31;;;4.87;76.42
35489;BME280;21602;55.670;37.578;2024-03-02T08:17:19;100467.28;;;4.93;75.90
35489;BME280;21602;55.670;37.578;2024-03-02T08:19:44;100470.72;;;5.09;76.25
35489;BME280;21602;55.670;37.578;2024-03-02T08:22:10;100467.88;;;5.19;78.36
35489;BME280;21602;55.670;37.578;2024-03-02T08:24:36;100470.19;;;5.22;75.81
35489;BME280;21602;55.670;37.578;2024-03-02T08:27:05;100465.53;;;5.32;75.30
35489;BME280;21602;55.670;37.578;2024-03-02T08:29:33;100457.09;;;5.29;76.78
35489;BME280;21602;55.670;37.578;2024-03-02T08:32:01;100467.97;;;5.42;75.17
35489;BME280;21602;55.670;37.578;2024-03-02T08:34:26;100464.88;;;5.61;75.29
35489;BME280;21602;55.670;37.578;2024-03-02T08:36:52;100468.44;;;5.77;73.89
35489;BME280;21602;55.670;37.578;2024-03-02T08:39:17;100471.34;;;5.90;74.00
35489;BME280;21602;55.670;37.578;2024-03-02T08:41:45;100467.97;;;6.04;74.16
35489;BME280;21602;55.670;37.578;2024-03-02T08:44:11;100469.06;;;6.10;73.06
35489;BME280;21602;55.670;37.578;2024-03-02T08:46:37;100474.91;;;6.05;72.57
35489;BME280;21602;55.670;37.578;2024-03-02T08:49:03;100472.97;;;5.91;71.84
35489;BME280;21602;55.670;37.578;2024-03-02T08:51:28;100472.75;;;5.70;72.66
35489;BME280;21602;55.670;37.578;2024-03-02T08:53:54;100469.91;;;5.48;72.79
35489;BME280;21602;55.670;37.578;2024-03-02T08:56:19;100474.88;;;5.51;73.97
35489;BME280;21602;55.670;37.578;2024-03-02T08:58:46;100471.63;;;5.64;75.04
35489;BME280;21602;55.670;37.578;2024-03-02T09:01:12;100471.72;;;5.79;74.00
35489;BME280;21602;55.670;37.578;2024-03-02T09:03:38;100472.13;;;5.99;73.75
35489;BME280;21602;55.670;37.578;2024-03-02T09:06:03;100467.44;;;6.09;73.90
35489;BME280;21602;55.670;37.578;2024-03-02T09:08:35;100472.78;;;6.24;72.69
35489;BME280;21602;55.670;37.578;2024-03-02T09:11:08;100467.56;;;6.30;73.42
35489;BME280;21602;55.670;37.578;2024-03-02T09:13:34;100467.56;;;6.53;72.68
35489;BME280;21602;55.670;37.578;2024-03-02T09:15:59;100465.13;;;6.66;72.30
35489;BME280;21602;55.670;37.578;2024-03-02T09:18:25;100466.69;;;6.76;72.91
35489;BME280;21602;55.670;37.578;2024-03-02T09:20:51;100467.06;;;6.87;72.49
35489;BME280;21602;55.670;37.578;2024-03-02T09:23:16;100468.34;;;6.91;71.89
35489;BME280;21602;55.670;37.578;2024-03-02T09:25:50;100459.28;;;6.86;71.01
35489;BME280;21602;55.670;37.578;2024-03-02T09:28:22;100458.00;;;6.82;70.96
35489;BME280;21602;55.670;37.578;2024-03-02T09:30:48;100459.00;;;6.81;71.10
35489;BME280;21602;55.670;37.578;2024-03-02T09:33:13;100455.34;;;6.82;71.77
35489;BME280;21602;55.670;37.578;2024-03-02T09:35:40;100459.53;;;6.76;70.66
35489;BME280;21602;55.670;37.578;2024-03-02T09:38:57;100458.53;;;6.77;71.10
35489;BME280;21602;55.670;37.578;2024-03-02T09:41:30;100454.59;;;6.88;71.14
35489;BME280;21602;55.670;37.578;2024-03-02T09:44:10;100457.16;;;6.96;71.26
35489;BME280;21602;55.670;37.578;2024-03-02T09:46:36;100451.13;;;7.02;70.69
35489;BME280;21602;55.670;37.578;2024-03-02T09:49:03;100456.00;;;6.84;69.65
35489;BME280;21602;55.670;37.578;2024-03-02T09:51:32;100449.25;;;6.44;70.23
35489;BME280;21602;55.670;37.578;2024-03-02T09:54:00;100450.44;;;6.41;71.14
35489;BME280;21602;55.670;37.578;2024-03-02T09:56:26;100452.84;;;6.51;71.41
35489;BME280;21602;55.670;37.578;2024-03-02T09:58:52;100444.66;;;6.37;70.45
35489;BME280;21602;55.670;37.578;2024-03-02T10:01:18;100451.81;;;6.52;72.04
35489;BME280;21602;55.670;37.578;2024-03-02T10:03:44;100446.47;;;6.75;71.62
35489;BME280;21602;55.670;37.578;2024-03-02T10:06:28;100451.59;;;7.06;70.57
35489;BME280;21602;55.670;37.578;2024-03-02T10:08:55;100454.78;;;7.01;70.53
35489;BME280;21602;55.670;37.578;2024-03-02T10:11:34;100453.06;;;7.08;69.54
35489;BME280;21602;55.670;37.578;2024-03-02T10:16:38;100456.00;;;7.13;68.62
35489;BME280;21602;55.670;37.578;2024-03-02T10:19:24;100448.84;;;7.29;68.65
35489;BME280;21602;55.670;37.578;2024-03-02T10:21:51;100448.00;;;7.28;68.69
35489;BME280;21602;55.670;37.578;2024-03-02T10:24:19;100452.13;;;7.31;68.37
35489;BME280;21602;55.670;37.578;2024-03-02T10:26:45;100450.50;;;7.15;67.43
35489;BME280;21602;55.670;37.578;2024-03-02T10:29:13;100457.84;;;6.98;68.22
35489;BME280;21602;55.670;37.578;2024-03-02T10:31:41;100455.81;;;7.00;69.05
35489;BME280;21602;55.670;37.578;2024-03-02T10:34:08;100457.84;;;6.98;68.23
35489;BME280;21602;55.670;37.578;2024-03-02T10:36:35;100454.97;;;7.00;68.74
35489;BME280;21602;55.670;37.578;2024-03-02T10:39:05;100458.72;;;7.20;69.64
35489;BME280;21602;55.670;37.578;2024-03-02T10:41:37;100459.44;;;7.29;67.33
35489;BME280;21602;55.670;37.578;2024-03-02T10:44:04;100460.19;;;7.37;69.34
35489;BME280;21602;55.670;37.578;2024-03-02T10:46:35;100460.66;;;7.41;66.71
35489;BME280;21602;55.670;37.578;2024-03-02T10:49:02;100459.44;;;7.29;66.62
35489;BME280;21602;55.670;37.578;2024-03-02T10:51:35;100457.88;;;7.34;68.38
35489;BME280;21602;55.670;37.578;2024-03-02T10:54:07;100466.41;;;7.30;67.37
35489;BME280;21602;55.670;37.578;2024-03-02T10:56:43;100463.56;;;7.46;66.69
35489;BME280;21602;55.670;37.578;2024-03-02T11:02:02;100467.38;;;7.58;65.94
35489;BME280;21602;55.670;37.578;2024-03-02T11:04:31;100455.56;;;7.61;65.76
35489;BME280;21602;55.670;37.578;2024-03-02T11:07:08;100463.69;;;7.74;65.62
35489;BME280;21602;55.670;37.578;2024-03-02T11:09:40;100456.41;;;7.83;65.41
35489;BME280;21602;55.670;37.578;2024-03-02T11:14:55;100456.47;;;7.89;64.62
35489;BME280;21602;55.670;37.578;2024-03-02T11:17:21;100459.44;;;8.01;64.52
35489;BME280;21602;55.670;37.578;2024-03-02T11:19:47;100450.09;;;8.05;64.06
35489;BME280;21602;55.670;37.578;2024-03-02T11:22:15;100450.09;;;8.05;64.36
35489;BME280;21602;55.670;37.578;2024-03-02T11:24:51;100447.78;;;8.02;64.33
35489;BME280;21602;55.670;37.578;2024-03-02T11:33:06;100458.25;;;7.46;63.29
35489;BME280;21602;55.670;37.578;2024-03-02T11:35:36;100466.88;;;7.18;64.25
35489;BME280;21602;55.670;37.578;2024-03-02T11:38:07;100455.06;;;7.06;64.35
35489;BME280;21602;55.670;37.578;2024-03-02T11:40:33;100448.13;;;7.05;64.98
35489;BME280;21602;55.670;37.578;2024-03-02T11:43:01;100447.22;;;6.98;64.77
35489;BME280;21602;55.670;37.578;2024-03-02T11:45:30;100445.94;;;6.94;65.78
35489;BME280;21602;55.670;37.578;2024-03-02T11:48:00;100445.09;;;6.93;65.47
35489;BME280;21602;55.670;37.578;2024-03-02T11:52:56;100444.97;;;6.72;65.16
35489;BME280;21602;55.670;37.578;2024-03-02T11:55:23;100444.50;;;6.54;65.43
35489;BME280;21602;55.670;37.578;2024-03-02T11:57:52;100442.81;;;6.38;65.89
35489;BME280;21602;55.670;37.578;2024-03-02T12:00:21;100444.69;;;6.14;67.16
35489;BME280;21602;55.670;37.578;2024-03-02T12:05:26;100445.25;;;6.25;67.88
35489;BME280;21602;55.670;37.578;2024-03-02T12:08:00;100439.94;;;6.25;67.89
35489;BME280;21602;55.670;37.578;2024-03-02T12:10:26;100438.19;;;6.17;67.57
35489;BME280;21602;55.670;37.578;2024-03-02T12:12:59;100435.13;;;6.05;67.59
35489;BME280;21602;55.670;37.578;2024-03-02T12:15:30;100435.88;;;5.91;67.96
35489;BME280;21602;55.670;37.578;2024-03-02T12:17:57;100433.66;;;5.80;69.21
35489;BME280;21602;55.670;37.578;2024-03-02T12:20:24;100435.31;;;5.73;68.44
35489;BME280;21602;55.670;37.578;2024-03-02T12:22:54;100433.44;;;5.58;69.01
35489;BME280;21602;55.670;37.578;2024-03-02T12:25:21;100437.09;;;5.57;69.05
35489;BME280;21602;55.670;37.578;2024-03-02T12:27:50;100439.31;;;5.69;68.77
35489;BME280;21602;55.670;37.578;2024-03-02T12:30:17;100441.59;;;5.80;67.69
35489;BME280;21602;55.670;37.578;2024-03-02T12:32:47;100440.28;;;5.76;67.77
35489;BME280;21602;55.670;37.578;2024-03-02T12:35:14;100443.47;;;5.71;67.37
35489;BME280;21602;55.670;37.578;2024-03-02T12:37:49;100433.34;;;5.75;66.59
35489;BME280;21602;55.670;37.578;2024-03-02T12:40:17;100434.53;;;5.64;65.50
35489;BME280;21602;55.670;37.578;2024-03-02T12:42:46;100434.91;;;5.61;65.87
35489;BME280;21602;55.670;37.578;2024-03-02T12:45:15;100440.78;;;5.48;65.65
35489;BME280;21602;55.670;37.578;2024-03-02T12:47:42;100429.56;;;5.38;65.32
35489;BME280;21602;55.670;37.578;2024-03-02T12:50:09;100431.84;;;5.41;64.86
35489;BME280;21602;55.670;37.578;2024-03-02T12:52:35;100436.63;;;5.46;64.37
35489;BME280;21602;55.670;37.578;2024-03-02T12:55:04;100434.84;;;5.46;63.96
35489;BME280;21602;55.670;37.578;2024-03-02T12:57:31;100439.50;;;5.36;64.13
35489;BME280;21602;55.670;37.578;2024-03-02T13:00:02;100439.16;;;5.39;64.15
35489;BME280;21602;55.670;37.578;2024-03-02T13:02:41;100433.16;;;5.45;64.67
35489;BME280;21602;55.670;37.578;2024-03-02T13:05:08;100441.91;;;5.54;64.20
35489;BME280;21602;55.670;37.578;2024-03-02T13:07:37;100442.03;;;5.60;63.86
35489;BME280;21602;55.670;37.578;2024-03-02T13:10:04;100447.06;;;5.47;62.79
35489;BME280;21602;55.670;37.578;2024-03-02T13:12:32;100455.53;;;5.43;64.25
35489;BME280;21602;55.670;37.578;2024-03-02T13:14:58;100448.72;;;5.48;63.61
35489;BME280;21602;55.670;37.578;2024-03-02T13:17:24;100457.09;;;5.60;63.78